createdAt,value
2023-04-17T00:02:30.850Z,6.32
2023-04-17T00:05:04.269Z,5.80
2023-04-17T00:07:38.852Z,5.60
2023-04-17T00:10:12.605Z,6.20
2023-04-17T00:15:18.860Z,5.07
2023-04-17T00:17:53.396Z,4.93
2023-04-17T00:20:26.602Z,5.30
2023-04-17T00:22:59.745Z,5.75
2023-04-17T00:25:32.882Z,5.78
2023-04-17T00:28:06.350Z,5.75
2023-04-17T00:30:39.539Z,5.32
2023-04-17T00:33:14.131Z,6.47
2023-04-17T00:35:47.881Z,5.13
2023-04-17T00:38:21.062Z,5.15
2023-04-17T00:40:54.264Z,5.22
2023-04-17T00:43:27.606Z,5.45
2023-04-17T00:46:01.376Z,5.30
2023-04-17T00:48:36.512Z,5.22
2023-04-17T00:51:09.711Z,4.85
2023-04-17T00:53:43.503Z,4.85
2023-04-17T00:58:50.496Z,5.38
2023-04-17T01:01:23.870Z,4.63
2023-04-17T01:04:00.005Z,4.40
2023-04-17T01:06:33.415Z,5.47
2023-04-17T01:09:07.700Z,4.75
2023-04-17T01:11:40.827Z,4.70
2023-04-17T01:14:15.946Z,4.70
2023-04-17T01:16:49.145Z,5.00
2023-04-17T01:19:23.795Z,4.60
2023-04-17T01:21:57.653Z,5.75
2023-04-17T01:24:32.262Z,4.45
2023-04-17T01:27:06.708Z,4.80
2023-04-17T01:29:40.753Z,4.75
2023-04-17T01:32:13.912Z,5.47
2023-04-17T01:34:47.541Z,5.72
2023-04-17T01:37:20.700Z,4.70
2023-04-17T01:39:56.179Z,4.60
2023-04-17T01:42:29.779Z,5.32
2023-04-17T01:45:03.395Z,5.05
2023-04-17T01:47:36.748Z,4.47
2023-04-17T01:50:10.912Z,5.28
2023-04-17T01:52:44.226Z,5.32
2023-04-17T01:55:18.884Z,5.05
2023-04-17T01:57:53.385Z,5.40
2023-04-17T02:00:27.158Z,5.82
2023-04-17T02:05:33.647Z,4.40
2023-04-17T02:08:07.086Z,4.50
2023-04-17T02:10:42.191Z,5.22
2023-04-17T02:13:15.543Z,4.75
2023-04-17T02:15:49.283Z,5.03
2023-04-17T02:18:22.570Z,4.97
2023-04-17T02:20:55.795Z,4.60
2023-04-17T02:23:29.175Z,5.47
2023-04-17T02:26:04.530Z,4.88
2023-04-17T02:28:37.775Z,4.68
2023-04-17T02:31:13.287Z,5.30
2023-04-17T02:33:46.499Z,5.15
2023-04-17T02:36:19.852Z,4.57
2023-04-17T02:38:53.060Z,6.47
2023-04-17T02:41:27.652Z,4.93
2023-04-17T02:44:02.143Z,5.07
2023-04-17T02:46:35.570Z,5.30
2023-04-17T02:49:09.601Z,5.47
2023-04-17T02:51:43.490Z,4.88
2023-04-17T02:54:16.703Z,5.35
2023-04-17T02:56:51.394Z,5.40
2023-04-17T02:59:24.595Z,4.90
2023-04-17T03:01:59.690Z,5.10
2023-04-17T03:04:34.520Z,4.75
2023-04-17T03:07:09.181Z,4.82
2023-04-17T03:09:42.770Z,4.75
2023-04-17T03:12:18.503Z,5.80
2023-04-17T03:14:52.418Z,4.97
2023-04-17T03:17:25.807Z,5.50
2023-04-17T03:22:32.440Z,4.70
2023-04-17T03:25:06.747Z,5.20
2023-04-17T03:27:49.502Z,5.47
2023-04-17T03:30:25.527Z,4.38
2023-04-17T03:33:01.271Z,5.10
2023-04-17T03:35:37.572Z,4.68
2023-04-17T03:38:13.689Z,5.07
2023-04-17T03:40:46.943Z,4.68
2023-04-17T03:45:54.921Z,4.30
2023-04-17T03:48:29.152Z,4.28
2023-04-17T03:51:02.469Z,5.30
2023-04-17T03:53:36.807Z,4.70
2023-04-17T03:56:13.523Z,4.15
2023-04-17T03:58:50.760Z,4.10
2023-04-17T04:01:28.400Z,4.60
2023-04-17T04:04:17.076Z,4.90
2023-04-17T04:09:26.527Z,4.50
2023-04-17T04:11:59.889Z,4.60
2023-04-17T04:14:36.057Z,4.10
2023-04-17T04:17:09.931Z,4.63
2023-04-17T04:19:44.514Z,4.28
2023-04-17T04:22:18.582Z,4.53
2023-04-17T04:24:56.563Z,3.88
2023-04-17T04:27:39.673Z,4.45
2023-04-17T04:30:15.636Z,4.63
2023-04-17T04:32:51.546Z,5.20
2023-04-17T04:35:25.874Z,4.65
2023-04-17T04:38:02.226Z,4.30
2023-04-17T04:40:38.390Z,4.30
2023-04-17T04:43:12.906Z,4.38
2023-04-17T04:45:50.081Z,3.78
2023-04-17T04:48:23.471Z,3.70
2023-04-17T04:50:57.158Z,4.55
2023-04-17T04:53:31.430Z,3.85
2023-04-17T04:58:40.284Z,4.15
2023-04-17T05:01:15.061Z,4.65
2023-04-17T05:03:51.834Z,4.72
2023-04-17T05:06:29.595Z,4.53
2023-04-17T05:09:07.130Z,4.70
2023-04-17T05:11:40.652Z,4.47
2023-04-17T05:14:14.068Z,4.63
2023-04-17T05:16:49.311Z,4.93
2023-04-17T05:19:22.751Z,4.60
2023-04-17T05:22:01.155Z,4.30
2023-04-17T05:24:36.149Z,4.20
2023-04-17T05:27:09.893Z,4.57
2023-04-17T05:29:43.840Z,4.50
2023-04-17T05:32:18.489Z,4.75
2023-04-17T05:35:01.486Z,5.00
2023-04-17T05:37:36.508Z,4.80
2023-04-17T05:40:10.706Z,5.15
2023-04-17T05:42:43.885Z,5.15
2023-04-17T05:45:18.043Z,5.50
2023-04-17T05:47:52.663Z,5.65
2023-04-17T05:50:26.967Z,5.85
2023-04-17T05:53:00.424Z,6.10
2023-04-17T05:55:37.208Z,6.80
2023-04-17T06:00:50.858Z,5.65
2023-04-17T06:03:27.250Z,6.38
2023-04-17T06:06:13.237Z,5.53
2023-04-17T06:08:46.417Z,5.70
2023-04-17T06:11:19.570Z,6.18
2023-04-17T06:13:53.581Z,6.25
2023-04-17T06:16:27.812Z,6.50
2023-04-17T06:19:02.419Z,5.88
2023-04-17T06:21:35.669Z,6.70
2023-04-17T06:24:09.792Z,5.05
2023-04-17T06:26:48.769Z,6.53
2023-04-17T06:31:55.584Z,6.00
2023-04-17T06:34:30.578Z,6.97
2023-04-17T06:37:03.754Z,7.53
2023-04-17T06:39:36.971Z,6.40
2023-04-17T06:42:10.549Z,7.00
2023-04-17T06:44:46.161Z,6.80
2023-04-17T06:49:54.519Z,7.18
2023-04-17T06:52:27.898Z,6.88
2023-04-17T06:55:02.336Z,7.78
2023-04-17T06:57:35.729Z,7.40
2023-04-17T07:00:10.132Z,7.10
2023-04-17T07:02:43.404Z,7.32
2023-04-17T07:05:19.712Z,7.32
2023-04-17T07:07:52.973Z,7.38
2023-04-17T07:10:26.391Z,8.35
2023-04-17T07:12:59.580Z,7.45
2023-04-17T07:15:32.864Z,7.82
2023-04-17T07:18:06.422Z,8.25
2023-04-17T07:20:41.093Z,8.07
2023-04-17T07:23:20.847Z,7.45
2023-04-17T07:25:54.091Z,8.68
2023-04-17T07:28:27.354Z,8.32
2023-04-17T07:31:00.658Z,8.60
2023-04-17T07:33:33.820Z,8.68
2023-04-17T07:36:11.237Z,8.68
2023-04-17T07:38:44.413Z,7.82
2023-04-17T07:41:17.775Z,8.18
2023-04-17T07:43:52.228Z,8.75
2023-04-17T07:46:25.543Z,9.20
2023-04-17T07:48:58.827Z,8.95
2023-04-17T07:51:33.415Z,8.93
2023-04-17T07:54:06.939Z,8.93
2023-04-17T07:56:40.647Z,8.18
2023-04-17T08:01:47.344Z,8.68
2023-04-17T08:04:21.284Z,9.18
2023-04-17T08:06:56.356Z,8.75
2023-04-17T08:09:30.073Z,8.50
2023-04-17T08:14:36.493Z,9.10
2023-04-17T08:17:09.804Z,7.43
2023-04-17T08:19:43.047Z,8.32
2023-04-17T08:22:19.703Z,8.07
2023-04-17T08:24:54.823Z,7.93
2023-04-17T08:27:28.011Z,7.53
2023-04-17T08:30:01.897Z,7.57
2023-04-17T08:32:39.444Z,6.95
2023-04-17T08:35:14.315Z,7.18
2023-04-17T08:37:48.889Z,8.85
2023-04-17T08:40:23.874Z,7.53
2023-04-17T08:42:57.111Z,7.38
2023-04-17T08:45:30.946Z,8.18
2023-04-17T08:50:38.130Z,7.93
2023-04-17T08:53:12.675Z,7.35
2023-04-17T08:55:46.274Z,7.30
2023-04-17T08:58:21.921Z,6.85
2023-04-17T09:00:55.182Z,7.03
2023-04-17T09:03:41.262Z,7.20
2023-04-17T09:06:15.800Z,8.75
2023-04-17T09:09:01.900Z,7.65
2023-04-17T09:11:35.106Z,7.45
2023-04-17T09:14:28.321Z,6.70
2023-04-17T09:17:01.467Z,7.97
2023-04-17T09:19:35.348Z,6.82
2023-04-17T09:22:24.167Z,7.47
2023-04-17T09:24:58.764Z,6.43
2023-04-17T09:27:31.969Z,7.90
2023-04-17T09:30:07.111Z,6.93
2023-04-17T09:32:41.498Z,6.32
2023-04-17T09:35:26.616Z,6.72
2023-04-17T09:38:00.197Z,7.18
2023-04-17T09:40:40.636Z,7.70
2023-04-17T09:43:13.817Z,7.20
2023-04-17T09:45:47.162Z,6.22
2023-04-17T09:48:21.385Z,7.25
2023-04-17T09:50:55.550Z,6.85
2023-04-17T09:53:29.571Z,9.90
2023-04-17T09:56:06.200Z,9.88
2023-04-17T09:58:39.676Z,11.27
2023-04-17T10:01:13.905Z,11.05
2023-04-17T10:03:47.865Z,10.82
2023-04-17T10:06:21.585Z,8.85
2023-04-17T10:08:55.197Z,8.45
2023-04-17T10:11:35.262Z,9.75
2023-04-17T10:14:14.914Z,9.50
2023-04-17T10:16:49.253Z,8.43
2023-04-17T10:19:27.672Z,9.15
2023-04-17T10:22:41.016Z,8.13
2023-04-17T10:25:22.237Z,8.60
2023-04-17T10:27:59.306Z,8.13
2023-04-17T10:30:51.048Z,7.88
2023-04-17T10:33:28.019Z,7.13
2023-04-17T10:36:01.671Z,8.27
2023-04-17T10:38:36.741Z,8.02
2023-04-17T10:41:11.315Z,7.85
2023-04-17T10:43:46.925Z,8.65
2023-04-17T10:46:20.226Z,8.63
2023-04-17T10:48:54.544Z,8.50
2023-04-17T10:51:44.090Z,8.15
2023-04-17T10:54:17.439Z,7.28
2023-04-17T10:56:55.872Z,8.50
2023-04-17T10:59:32.193Z,7.00
2023-04-17T11:02:07.644Z,7.35
2023-04-17T11:04:41.066Z,7.32
2023-04-17T11:07:16.010Z,6.97
2023-04-17T11:09:52.944Z,7.10
2023-04-17T11:12:26.234Z,6.82
2023-04-17T11:15:04.615Z,7.15
2023-04-17T11:17:40.474Z,6.80
2023-04-17T11:20:15.236Z,6.70
2023-04-17T11:22:49.029Z,6.43
2023-04-17T11:28:00.603Z,7.43
2023-04-17T11:30:36.772Z,8.85
2023-04-17T11:33:13.662Z,7.57
2023-04-17T11:35:47.104Z,8.05
2023-04-17T11:38:22.196Z,9.32
2023-04-17T11:40:59.060Z,8.32
2023-04-17T11:43:37.230Z,9.20
2023-04-17T11:46:11.826Z,9.20
2023-04-17T11:48:50.046Z,8.77
2023-04-17T11:51:23.337Z,8.27
2023-04-17T11:53:56.790Z,8.18
2023-04-17T11:56:30.955Z,8.40
2023-04-17T11:59:05.286Z,7.68
2023-04-17T12:01:53.369Z,8.00
2023-04-17T12:04:26.847Z,8.52
2023-04-17T12:07:00.153Z,8.13
2023-04-17T12:09:34.036Z,7.80
2023-04-17T12:12:08.833Z,7.82
2023-04-17T12:14:42.000Z,7.40
2023-04-17T12:17:16.528Z,8.45
2023-04-17T12:19:49.679Z,7.32
2023-04-17T12:22:23.476Z,7.70
2023-04-17T12:27:29.759Z,8.13
2023-04-17T12:30:02.932Z,7.72
2023-04-17T12:32:38.205Z,7.82
2023-04-17T12:35:11.661Z,8.02
2023-04-17T12:37:48.583Z,7.70
2023-04-17T12:40:24.845Z,7.35
2023-04-17T12:42:58.221Z,7.30
2023-04-17T12:45:31.451Z,7.25
2023-04-17T12:48:06.486Z,7.25
2023-04-17T12:50:42.442Z,7.57
2023-04-17T12:53:16.761Z,7.72
2023-04-17T12:55:50.044Z,7.88
2023-04-17T12:58:23.218Z,6.78
2023-04-17T13:00:56.555Z,6.05
2023-04-17T13:03:31.274Z,6.45
2023-04-17T13:06:04.954Z,7.68
2023-04-17T13:08:38.171Z,7.25
2023-04-17T13:11:11.498Z,7.15
2023-04-17T13:13:44.959Z,6.97
2023-04-17T13:16:18.284Z,8.00
2023-04-17T13:18:52.798Z,7.55
2023-04-17T13:21:26.868Z,7.53
2023-04-17T13:24:00.467Z,7.10
2023-04-17T13:26:33.718Z,7.97
2023-04-17T13:29:06.873Z,7.13
2023-04-17T13:31:40.063Z,7.63
2023-04-17T13:34:14.586Z,7.30
2023-04-17T13:36:48.150Z,7.60
2023-04-17T13:39:24.857Z,7.15
2023-04-17T13:41:58.412Z,8.25
2023-04-17T13:44:32.257Z,7.13
2023-04-17T13:47:07.805Z,6.53
2023-04-17T13:49:42.400Z,7.88
2023-04-17T13:52:15.606Z,7.68
2023-04-17T13:54:49.791Z,7.60
2023-04-17T13:57:23.037Z,7.88
2023-04-17T13:59:56.227Z,8.52
2023-04-17T14:02:29.570Z,7.10
2023-04-17T14:05:05.070Z,7.53
2023-04-17T14:07:38.939Z,7.97
2023-04-17T14:12:45.050Z,7.68
2023-04-17T14:15:19.840Z,7.22
2023-04-17T14:17:53.194Z,8.60
2023-04-17T14:20:27.735Z,7.95
2023-04-17T14:23:01.201Z,7.45
2023-04-17T14:25:34.405Z,8.10
2023-04-17T14:28:07.685Z,7.97
2023-04-17T14:30:40.908Z,8.20
2023-04-17T14:33:14.375Z,7.07
2023-04-17T14:35:49.053Z,7.22
2023-04-17T14:38:22.186Z,7.78
2023-04-17T14:40:55.368Z,6.85
2023-04-17T14:43:28.618Z,8.40
2023-04-17T14:46:02.229Z,7.40
2023-04-17T14:51:30.650Z,6.82
2023-04-17T14:54:04.160Z,8.10
2023-04-17T14:56:37.331Z,7.05
2023-04-17T14:59:11.108Z,7.60
2023-04-17T15:01:44.614Z,6.45
2023-04-17T15:04:18.082Z,7.95
2023-04-17T15:06:52.673Z,6.68
2023-04-17T15:09:25.869Z,7.07
2023-04-17T15:11:59.005Z,7.30
2023-04-17T15:14:32.185Z,6.80
2023-04-17T15:17:07.001Z,7.32
2023-04-17T15:19:40.266Z,6.97
2023-04-17T15:22:14.822Z,7.20
2023-04-17T15:24:48.117Z,6.63
2023-04-17T15:27:21.473Z,7.03
2023-04-17T15:29:54.893Z,7.30
2023-04-17T15:32:28.224Z,7.13
2023-04-17T15:35:01.461Z,6.03
2023-04-17T15:37:36.058Z,7.20
2023-04-17T15:40:10.209Z,7.32
2023-04-17T15:42:43.650Z,6.97
2023-04-17T15:45:17.102Z,6.32
2023-04-17T15:50:23.972Z,7.47
2023-04-17T15:52:58.528Z,6.25
2023-04-17T15:55:33.176Z,6.60
2023-04-17T15:58:06.739Z,6.60
2023-04-17T16:00:40.013Z,6.72
2023-04-17T16:03:13.315Z,6.25
2023-04-17T16:05:46.677Z,7.05
2023-04-17T16:08:21.489Z,6.60
2023-04-17T16:10:54.723Z,6.38
2023-04-17T16:13:27.943Z,6.30
2023-04-17T16:16:01.256Z,6.45
2023-04-17T16:18:34.832Z,7.22
2023-04-17T16:21:11.947Z,7.10
2023-04-17T16:23:48.694Z,6.70
2023-04-17T16:26:21.928Z,7.38
2023-04-17T16:28:55.783Z,6.72
2023-04-17T16:31:29.081Z,7.47
2023-04-17T16:34:03.108Z,6.70
2023-04-17T16:36:36.620Z,7.07
2023-04-17T16:39:12.441Z,7.25
2023-04-17T16:41:45.856Z,6.72
2023-04-17T16:44:19.082Z,7.50
2023-04-17T16:47:12.071Z,6.88
2023-04-17T16:49:45.448Z,6.55
2023-04-17T16:52:18.676Z,6.63
2023-04-17T16:54:53.288Z,7.15
2023-04-17T16:57:26.553Z,7.05
2023-04-17T16:59:59.765Z,7.07
2023-04-17T17:02:33.068Z,6.97
2023-04-17T17:05:08.056Z,6.85
2023-04-17T17:07:41.299Z,5.95
2023-04-17T17:10:15.974Z,6.55
2023-04-17T17:12:49.223Z,6.65
2023-04-17T17:15:22.514Z,8.90
2023-04-17T17:17:59.461Z,7.80
2023-04-17T17:20:33.539Z,7.07
2023-04-17T17:25:41.391Z,7.57
2023-04-17T17:28:14.617Z,7.70
2023-04-17T17:30:48.560Z,7.05
2023-04-17T17:33:22.015Z,6.88
2023-04-17T17:35:55.945Z,6.60
2023-04-17T17:38:30.881Z,7.18
2023-04-17T17:41:06.070Z,7.40
2023-04-17T17:43:40.124Z,6.90
2023-04-17T17:46:14.073Z,7.75
2023-04-17T17:48:47.753Z,6.88
2023-04-17T17:51:22.649Z,7.13
2023-04-17T17:53:56.659Z,7.20
2023-04-17T17:56:31.296Z,7.10
2023-04-17T17:59:04.493Z,7.25
2023-04-17T18:01:37.792Z,6.78
2023-04-17T18:04:11.161Z,7.05
2023-04-17T18:06:45.006Z,6.85
2023-04-17T18:09:18.312Z,7.70
2023-04-17T18:11:53.132Z,7.32
2023-04-17T18:14:26.413Z,7.28
2023-04-17T18:16:59.788Z,8.07
2023-04-17T18:19:33.096Z,7.85
2023-04-17T18:22:06.301Z,7.32
2023-04-17T18:24:39.614Z,7.18
2023-04-17T18:27:14.312Z,8.38
2023-04-17T18:29:47.576Z,8.38
2023-04-17T18:32:21.093Z,7.68
2023-04-17T18:34:54.444Z,8.02
2023-04-17T18:37:27.770Z,7.90
2023-04-17T18:40:01.205Z,7.32
2023-04-17T18:42:35.820Z,8.18
2023-04-17T18:45:10.409Z,7.72
2023-04-17T18:47:43.649Z,6.57
2023-04-17T18:50:17.302Z,7.80
2023-04-17T18:52:51.362Z,7.80
2023-04-17T18:55:25.015Z,7.40
2023-04-17T18:58:02.568Z,7.90
2023-04-17T19:00:36.578Z,7.35
2023-04-17T19:03:10.159Z,8.38
2023-04-17T19:05:43.726Z,8.07
2023-04-17T19:08:17.221Z,8.15
2023-04-17T19:10:50.641Z,7.30
2023-04-17T19:13:25.421Z,7.57
2023-04-17T19:15:58.882Z,8.10
2023-04-17T19:18:32.634Z,8.02
2023-04-17T19:23:39.826Z,7.43
2023-04-17T19:26:15.767Z,7.30
2023-04-17T19:28:53.026Z,8.32
2023-04-17T19:31:27.844Z,7.65
2023-04-17T19:34:03.360Z,8.18
2023-04-17T19:36:36.908Z,7.55
2023-04-17T19:39:10.150Z,9.07
2023-04-17T19:41:50.454Z,7.25
2023-04-17T19:44:27.324Z,8.32
2023-04-17T19:47:01.078Z,9.27
2023-04-17T19:49:34.303Z,7.60
2023-04-17T19:52:07.525Z,7.30
2023-04-17T19:54:42.806Z,6.80
2023-04-17T19:57:16.036Z,6.88
2023-04-17T19:59:50.746Z,6.97
2023-04-17T20:02:27.578Z,7.63
2023-04-17T20:05:11.071Z,7.00
2023-04-17T20:07:49.445Z,7.25
2023-04-17T20:10:28.412Z,8.13
2023-04-17T20:13:01.876Z,7.03
2023-04-17T20:15:36.498Z,7.22
2023-04-17T20:18:11.193Z,6.60
2023-04-17T20:20:44.524Z,7.00
2023-04-17T20:23:17.976Z,6.82
2023-04-17T20:25:51.669Z,7.28
2023-04-17T20:30:59.565Z,7.03
2023-04-17T20:33:32.924Z,6.70
2023-04-17T20:36:07.062Z,6.80
2023-04-17T20:38:40.582Z,6.68
2023-04-17T20:41:13.854Z,6.40
2023-04-17T20:43:46.986Z,6.97
2023-04-17T20:46:21.609Z,6.45
2023-04-17T20:48:54.901Z,6.05
2023-04-17T20:51:28.785Z,6.60
2023-04-17T20:54:02.646Z,7.45
2023-04-17T20:56:36.845Z,6.40
2023-04-17T20:59:10.771Z,6.07
2023-04-17T21:01:48.706Z,6.32
2023-04-17T21:04:22.832Z,7.00
2023-04-17T21:06:57.271Z,6.03
2023-04-17T21:09:31.426Z,7.35
2023-04-17T21:12:05.650Z,6.38
2023-04-17T21:14:41.359Z,6.20
2023-04-17T21:17:19.792Z,6.47
2023-04-17T21:19:56.729Z,6.53
2023-04-17T21:22:29.865Z,6.22
2023-04-17T21:25:03.107Z,6.22
2023-04-17T21:27:36.298Z,6.10
2023-04-17T21:30:10.679Z,6.78
2023-04-17T21:32:46.137Z,5.90
2023-04-17T21:35:19.487Z,6.20
2023-04-17T21:37:52.649Z,5.80
2023-04-17T21:40:26.402Z,5.97
2023-04-17T21:43:02.690Z,6.60
2023-04-17T21:45:40.232Z,5.93
2023-04-17T21:48:15.756Z,5.47
2023-04-17T21:50:48.986Z,5.80
2023-04-17T21:53:22.232Z,5.72
2023-04-17T21:55:55.437Z,5.63
2023-04-17T21:58:29.050Z,5.85
2023-04-17T22:01:02.303Z,5.40
2023-04-17T22:03:37.017Z,5.60
2023-04-17T22:06:10.643Z,6.35
2023-04-17T22:08:44.129Z,6.15
2023-04-17T22:11:17.393Z,5.25
2023-04-17T22:13:50.643Z,5.68
2023-04-17T22:16:23.811Z,6.20
2023-04-17T22:18:58.367Z,6.22
2023-04-17T22:21:31.630Z,5.50
2023-04-17T22:24:05.186Z,5.50
2023-04-17T22:26:38.929Z,5.30
2023-04-17T22:29:12.342Z,5.85
2023-04-17T22:31:45.548Z,5.68
2023-04-17T22:34:20.268Z,5.75
2023-04-17T22:36:53.479Z,5.53
2023-04-17T22:39:26.737Z,6.25
2023-04-17T22:41:59.946Z,5.53
2023-04-17T22:44:33.162Z,6.93
2023-04-17T22:47:06.459Z,5.18
2023-04-17T22:49:41.620Z,5.00
2023-04-17T22:52:14.796Z,4.95
2023-04-17T22:54:47.940Z,5.70
2023-04-17T22:57:21.148Z,5.57
2023-04-17T22:59:54.435Z,5.47
2023-04-17T23:02:27.775Z,5.38
2023-04-17T23:05:02.391Z,5.38
2023-04-17T23:07:35.603Z,5.25
2023-04-17T23:10:09.780Z,5.45
2023-04-17T23:12:42.941Z,5.32
2023-04-17T23:15:16.109Z,5.10
2023-04-17T23:17:49.255Z,5.32
2023-04-17T23:20:24.889Z,5.00
2023-04-17T23:22:58.102Z,5.18
2023-04-17T23:25:31.245Z,5.20
2023-04-17T23:28:04.404Z,5.35
2023-04-17T23:30:37.667Z,5.25
2023-04-17T23:33:10.833Z,5.05
2023-04-17T23:35:45.343Z,5.00
2023-04-17T23:38:18.541Z,5.80
2023-04-17T23:40:51.788Z,4.90
2023-04-17T23:43:25.029Z,5.28
2023-04-17T23:46:00.433Z,4.80
2023-04-17T23:48:33.573Z,5.18
2023-04-17T23:51:08.898Z,4.30
2023-04-17T23:53:42.074Z,5.07
2023-04-17T23:56:16.180Z,4.25
2023-04-17T23:58:49.328Z,4.75
